Time;durP1;ratioP1;P1;durP2;ratioP2;P2;SDS_P1;SDS_P2;PMS_P1;PMS_P2;Temp;Humidity;BMP_temperature;BMP_pressure;BME280_temperature;BME280_humidity;BME280_pressure;Samples;Min_cycle;Max_cycle;Signal;HPM_P1;HPM_P2
2023/01/28 00:01:20;;;;;;;33.42;12.95;;;;;;;3.72;58.54;98635.06;4364832;32;20103;-86
2023/01/28 00:03:49;;;;;;;29.87;12.50;;;;;;;3.59;58.61;98639.78;4364602;32;20117;-86
2023/01/28 00:06:15;;;;;;;31.60;14.40;;;;;;;3.64;58.35;98637.06;4364853;32;20171;-85
2023/01/28 00:08:41;;;;;;;30.25;12.95;;;;;;;3.85;57.87;98635.59;4363580;32;20091;-85
2023/01/28 00:11:09;;;;;;;30.37;12.68;;;;;;;3.42;58.64;98642.00;4364706;32;20079;-85
2023/01/28 00:13:34;;;;;;;;;;;;;;;3.78;57.83;98644.47;4365116;32;20115;-84
2023/01/28 00:16:05;;;;;;;31.23;13.02;;;;;;;3.60;58.11;98651.06;4364775;32;19993;-85
2023/01/28 00:18:31;;;;;;;28.05;11.55;;;;;;;3.86;57.25;98647.69;4364825;32;20127;-85
2023/01/28 00:20:57;;;;;;;30.12;12.45;;;;;;;3.82;56.81;98635.66;4363432;32;20091;-85
2023/01/28 00:23:23;;;;;;;30.85;12.23;;;;;;;3.59;56.55;98644.16;4375884;32;20103;-85
2023/01/28 00:25:48;;;;;;;35.97;12.52;;;;;;;3.49;57.34;98643.56;4375921;32;20540;-85
2023/01/28 00:28:14;;;;;;;33.50;13.38;;;;;;;3.79;56.98;98646.19;4364499;32;20088;-85
2023/01/28 00:30:39;;;;;;;26.42;11.45;;;;;;;3.83;57.05;98645.19;4364616;32;20395;-85
2023/01/28 00:33:05;;;;;;;32.33;12.95;;;;;;;3.87;56.72;98646.81;4375803;32;20111;-85
2023/01/28 00:35:30;;;;;;;32.45;13.45;;;;;;;3.84;56.87;98647.72;4364391;32;20125;-84
2023/01/28 00:37:55;;;;;;;28.08;12.32;;;;;;;3.83;56.92;98646.03;4364557;32;20141;-84
2023/01/28 00:40:21;;;;;;;29.73;14.43;;;;;;;3.58;57.08;98650.28;4364459;32;20448;-84
2023/01/28 00:42:46;;;;;;;27.83;11.15;;;;;;;3.78;56.90;98657.50;4364371;32;20142;-83
2023/01/28 00:45:11;;;;;;;26.98;11.07;;;;;;;3.82;56.68;98659.97;4364575;32;20091;-83
2023/01/28 00:47:37;;;;;;;27.75;12.23;;;;;;;3.59;56.97;98655.41;4375696;32;20526;-84
2023/01/28 00:50:03;;;;;;;29.45;11.85;;;;;;;4.16;55.48;98655.50;4364358;32;20107;-85
2023/01/28 00:52:29;;;;;;;28.05;12.00;;;;;;;4.08;55.67;98656.59;4363376;32;20394;-86
2023/01/28 00:54:56;;;;;;;29.25;12.18;;;;;;;3.87;56.33;98663.28;4363142;32;20137;-87
2023/01/28 00:57:21;;;;;;;28.35;12.43;;;;;;;3.98;55.73;98662.09;4364603;32;20098;-87
2023/01/28 00:59:47;;;;;;;29.05;11.43;;;;;;;4.40;54.79;98659.09;4363280;32;20467;-86
2023/01/28 01:02:12;;;;;;;30.98;12.23;;;;;;;4.05;55.18;98663.66;4375489;32;20119;-87
2023/01/28 01:04:53;;;;;;;26.65;10.93;;;;;;;4.39;54.48;98670.44;4364585;32;20144;-87
2023/01/28 01:07:20;;;;;;;30.40;11.98;;;;;;;4.35;54.32;98664.47;4375733;32;20415;-85
2023/01/28 01:09:46;;;;;;;29.27;12.67;;;;;;;4.39;54.14;98657.41;4364443;32;20113;-85
2023/01/28 01:12:11;;;;;;;31.00;13.27;;;;;;;4.46;53.77;98669.31;4364205;32;20110;-85
2023/01/28 01:14:37;;;;;;;28.98;12.15;;;;;;;4.16;54.90;98656.34;4364359;32;20106;-84
2023/01/28 01:17:02;;;;;;;29.65;12.48;;;;;;;4.38;54.43;98658.28;4363193;32;20079;-83
2023/01/28 01:19:28;;;;;;;33.08;13.07;;;;;;;4.41;54.42;98658.22;4363161;32;20173;-86
2023/01/28 01:21:55;;;;;;;30.45;12.18;;;;;;;4.00;55.46;98668.13;4364293;32;20103;-85
2023/01/28 01:24:21;;;;;;;31.52;13.62;;;;;;;4.27;55.03;98661.25;4363225;32;20095;-86
2023/01/28 01:26:46;;;;;;;28.55;12.35;;;;;;;4.16;55.11;98666.78;4364491;32;20139;-86
2023/01/28 01:29:11;;;;;;;29.77;12.23;;;;;;;4.61;54.20;98657.56;4363362;32;20107;-85
2023/01/28 01:31:37;;;;;;;29.00;13.05;;;;;;;4.52;54.50;98667.41;4364529;32;20120;-85
2023/01/28 01:34:02;;;;;;;33.33;12.88;;;;;;;4.41;54.88;98664.25;4364307;32;20095;-86
2023/01/28 01:36:28;;;;;;;31.83;12.73;;;;;;;4.17;55.07;98660.66;4375417;32;20341;-85
2023/01/28 01:38:54;;;;;;;30.95;13.88;;;;;;;3.94;56.36;98667.44;4363104;32;20083;-85
2023/01/28 01:41:31;;;;;;;31.42;14.10;;;;;;;4.28;55.30;98663.78;4364140;32;20246;-86
2023/01/28 01:44:01;;;;;;;31.00;12.75;;;;;;;3.74;56.46;98654.97;4363145;32;20126;-85
2023/01/28 01:46:34;;;;;;;33.15;12.60;;;;;;;4.43;55.17;98659.84;4364269;32;20114;-86
2023/01/28 01:49:24;;;;;;;30.75;12.00;;;;;;;4.31;55.20;98668.06;4362968;32;20529;-84
2023/01/28 01:51:53;;;;;;;;;;;;;;;4.51;54.67;98657.00;4375761;32;20425;-82
2023/01/28 01:54:19;;;;;;;;;;;;;;;4.03;55.80;98666.28;4375661;32;20008;-82
2023/01/28 01:56:46;;;;;;;29.58;12.05;;;;;;;4.17;55.08;98672.84;4375429;32;19974;-82
2023/01/28 01:59:14;;;;;;;27.83;11.77;;;;;;;4.51;54.34;98663.06;4364037;32;20075;-82
2023/01/28 02:01:40;;;;;;;28.30;12.40;;;;;;;3.82;55.69;98666.94;4362003;32;20596;-81
2023/01/28 02:04:20;;;;;;;26.95;11.75;;;;;;;4.24;54.97;98666.53;4362599;32;20099;-83
2023/01/28 02:06:46;;;;;;;29.42;11.98;;;;;;;4.20;55.16;98663.19;4362722;32;20452;-83
2023/01/28 02:09:28;;;;;;;28.23;11.60;;;;;;;4.54;54.23;98662.13;4375237;32;20468;-83
2023/01/28 02:11:56;;;;;;;26.62;11.57;;;;;;;4.46;54.43;98665.00;4364128;32;20173;-83
2023/01/28 02:14:23;;;;;;;28.02;12.40;;;;;;;4.67;53.86;98662.56;4362806;32;20107;-83
2023/01/28 02:16:48;;;;;;;27.73;11.33;;;;;;;4.64;53.91;98658.31;4350594;32;20121;-83
2023/01/28 02:19:15;;;;;;;29.37;12.20;;;;;;;4.60;54.33;98664.53;4362656;32;20157;-86
2023/01/28 02:22:04;;;;;;;30.67;13.45;;;;;;;4.71;54.09;98664.16;4375285;32;20099;-87
2023/01/28 02:25:03;;;;;;;29.50;12.15;;;;;;;4.90;53.83;98664.41;4362537;32;20201;-85
2023/01/28 02:27:57;;;;;;;31.23;12.00;;;;;;;4.43;55.18;98665.06;4362464;32;20179;-83
2023/01/28 02:30:28;;;;;;;31.10;12.65;;;;;;;4.55;55.04;98662.97;4362462;32;20154;-82
2023/01/28 02:32:57;;;;;;;33.42;14.80;;;;;;;4.22;55.99;98656.16;4374853;32;20103;-85
2023/01/28 02:35:28;;;;;;;35.45;13.88;;;;;;;4.36;55.70;98663.53;4362434;32;20094;-85
2023/01/28 02:38:23;;;;;;;33.03;14.15;;;;;;;4.44;55.68;98655.47;4363611;32;20113;-84
2023/01/28 02:41:01;;;;;;;32.67;13.05;;;;;;;4.06;56.66;98663.59;4363026;32;20087;-84
2023/01/28 02:43:29;;;;;;;32.30;14.13;;;;;;;4.36;55.86;98658.34;4363873;32;20091;-85
2023/01/28 02:48:38;;;;;;;31.80;13.38;;;;;;;4.18;57.02;98653.72;4362467;32;20171;-83
2023/01/28 02:51:23;;;;;;;36.90;13.98;;;;;;;4.23;56.86;98665.72;4349934;32;20496;-86
2023/01/28 02:54:04;;;;;;;32.90;13.30;;;;;;;4.43;56.52;98659.84;4362361;32;20107;-86
2023/01/28 02:56:41;;;;;;;33.08;13.68;;;;;;;4.31;56.40;98655.88;4363704;32;20098;-87
2023/01/28 02:59:31;;;;;;;38.20;15.45;;;;;;;3.94;57.99;98663.97;4362326;32;20121;-84
2023/01/28 03:02:06;;;;;;;34.65;14.00;;;;;;;4.00;58.04;98661.19;4362096;32;20169;-86
2023/01/28 03:04:37;;;;;;;34.40;13.60;;;;;;;4.24;57.71;98653.50;4349674;32;20131;-86
2023/01/28 03:07:04;;;;;;;38.60;15.25;;;;;;;4.20;57.85;98660.56;4362060;32;20116;-90
2023/01/28 03:09:30;;;;;;;38.25;15.10;;;;;;;3.87;58.67;98662.44;4361980;32;20128;-89
2023/01/28 03:37:30;;;;;;;36.35;14.80;;;;;;;2.83;62.57;98663.53;4377802;32;20145;-89
2023/01/28 03:40:01;;;;;;;41.53;15.98;;;;;;;2.73;63.35;98666.38;4376946;32;20134;-86
2023/01/28 03:42:26;;;;;;;34.83;15.65;;;;;;;3.22;61.78;98666.84;4378611;32;20094;-87
2023/01/28 03:44:51;;;;;;;35.53;14.60;;;;;;;3.14;62.23;98668.81;4387224;32;20095;-87
2023/01/28 03:47:27;;;;;;;34.15;14.95;;;;;;;3.36;61.33;98669.06;4377057;32;20095;-86
2023/01/28 03:49:54;;;;;;;38.42;16.17;;;;;;;3.64;60.50;98671.78;4386834;32;20103;-83
2023/01/28 03:52:25;;;;;;;36.20;15.48;;;;;;;3.71;60.12;98677.69;4376256;32;20110;-83
2023/01/28 03:54:51;;;;;;;37.97;15.48;;;;;;;3.29;61.18;98680.56;4363007;32;20086;-85
2023/01/28 03:57:19;;;;;;;35.72;14.98;;;;;;;3.54;60.68;98676.38;4363734;32;20420;-86
2023/01/28 03:59:45;;;;;;;42.65;16.50;;;;;;;3.31;60.91;98684.81;4364742;32;20184;-90
2023/01/28 04:02:11;;;;;;;38.67;15.30;;;;;;;3.60;60.43;98675.37;4363809;32;20472;-84
2023/01/28 04:04:38;;;;;;;38.22;15.55;;;;;;;3.00;61.94;98681.34;4365227;32;20079;-88
2023/01/28 04:07:04;;;;;;;38.50;16.52;;;;;;;3.43;61.08;98680.19;4364999;32;20106;-89
2023/01/28 04:09:30;;;;;;;37.47;14.93;;;;;;;3.31;61.20;98670.97;4363662;32;20177;-89
2023/01/28 04:11:55;;;;;;;38.63;15.35;;;;;;;3.21;61.91;98685.97;4364793;32;20416;-90
2023/01/28 04:14:20;;;;;;;38.17;15.68;;;;;;;3.37;61.44;98672.56;4364375;32;20125;-89
2023/01/28 04:16:46;;;;;;;36.85;15.32;;;;;;;3.30;61.57;98677.94;4364778;32;20113;-90
2023/01/28 04:19:12;;;;;;;38.80;15.77;;;;;;;3.76;60.17;98673.16;4364798;32;20431;-91
2023/01/28 04:21:38;;;;;;;38.83;15.82;;;;;;;3.59;60.65;98675.41;4363589;32;20106;-91
2023/01/28 04:24:03;;;;;;;39.65;16.37;;;;;;;3.92;59.56;98681.38;4364684;32;20360;-86
2023/01/28 04:26:29;;;;;;;39.42;16.60;;;;;;;3.94;59.46;98683.06;4375300;32;20118;-85
2023/01/28 04:28:55;;;;;;;36.65;15.75;;;;;;;3.99;59.32;98674.25;4364571;32;20091;-85
2023/01/28 04:31:22;;;;;;;42.88;17.65;;;;;;;3.74;59.90;98688.84;4375919;32;20102;-84
2023/01/28 04:33:48;;;;;;;42.22;17.33;;;;;;;3.68;60.05;98690.78;4364649;32;20071;-90
2023/01/28 04:36:13;;;;;;;37.28;15.18;;;;;;;4.03;59.24;98684.53;4363449;32;20109;-85
2023/01/28 04:38:39;;;;;;;41.05;16.80;;;;;;;3.92;59.38;98695.28;4364638;32;20095;-87
2023/01/28 04:41:04;;;;;;;36.70;16.10;;;;;;;3.97;59.30;98689.09;4364628;32;20114;-89
2023/01/28 04:43:30;;;;;;;42.60;17.25;;;;;;;3.85;59.68;98695.50;4364519;32;20138;-89
2023/01/28 04:45:55;;;;;;;42.10;16.45;;;;;;;3.75;60.09;98689.72;4364571;32;20092;-90
2023/01/28 04:48:20;;;;;;;40.00;16.37;;;;;;;4.01;59.43;98691.53;4364606;32;20329;-90
2023/01/28 04:50:46;;;;;;;44.67;17.75;;;;;;;4.14;59.06;98690.28;4364585;32;20095;-90
2023/01/28 04:53:11;;;;;;;41.00;16.77;;;;;;;4.12;59.21;98684.25;4364474;32;20144;-89
2023/01/28 04:55:37;;;;;;;40.75;16.98;;;;;;;4.02;59.47;98689.78;4364433;32;20091;-89
2023/01/28 04:58:02;;;;;;;42.80;16.65;;;;;;;4.01;59.45;98698.53;4363270;32;20125;-90
2023/01/28 05:00:28;;;;;;;42.20;17.17;;;;;;;4.00;59.35;98702.00;4364402;32;20129;-88
2023/01/28 05:02:54;;;;;;;39.47;15.98;;;;;;;3.20;61.61;98706.84;4364300;32;20085;-85
2023/01/28 05:05:19;;;;;;;40.92;17.62;;;;;;;3.52;60.99;98703.38;4364384;32;20447;-86
2023/01/28 05:07:50;;;;;;;42.58;16.65;;;;;;;3.82;60.03;98700.81;4364543;32;20121;-86
2023/01/28 05:10:18;;;;;;;43.38;16.08;;;;;;;3.86;59.92;98710.25;4363365;32;20095;-77
2023/01/28 05:12:44;;;;;;;42.53;17.15;;;;;;;3.57;61.26;98706.69;4363544;32;20079;-84
2023/01/28 05:15:09;;;;;;;40.35;15.95;;;;;;;3.98;59.88;98715.13;4364585;32;20122;-84
2023/01/28 05:17:35;;;;;;;44.17;18.52;;;;;;;3.46;60.94;98717.41;4365373;32;20360;-95
2023/01/28 05:20:00;;;;;;;44.63;18.10;;;;;;;3.46;61.09;98714.81;4369151;32;20083;-96
2023/01/28 05:22:25;;;;;;;39.72;16.23;;;;;;;3.76;60.82;98714.00;4371426;32;20082;-95
2023/01/28 05:24:51;;;;;;;44.42;16.77;;;;;;;3.97;60.36;98718.59;4365176;32;20122;-96
2023/01/28 05:27:16;;;;;;;42.72;17.20;;;;;;;3.56;61.03;98723.22;4365459;32;20103;-96
2023/01/28 05:29:42;;;;;;;40.60;16.27;;;;;;;3.98;60.25;98722.94;4365236;32;20092;-96
2023/01/28 05:32:08;;;;;;;43.03;16.87;;;;;;;4.26;59.36;98722.97;4365067;32;20134;-96
2023/01/28 05:34:33;;;;;;;39.45;17.37;;;;;;;4.07;59.79;98716.59;4363820;32;20372;-96
2023/01/28 05:36:59;;;;;;;44.55;17.40;;;;;;;3.91;60.11;98724.84;4363950;32;20080;-96
2023/01/28 05:39:24;;;;;;;41.90;16.62;;;;;;;3.97;59.86;98718.59;4365182;32;20105;-96
2023/01/28 05:41:50;;;;;;;42.78;17.12;;;;;;;4.07;59.50;98722.66;4364378;32;20087;-96
2023/01/28 05:44:15;;;;;;;39.75;16.40;;;;;;;3.94;59.58;98729.97;4365148;32;20095;-95
2023/01/28 05:46:44;;;;;;;42.22;16.90;;;;;;;4.13;59.33;98727.69;4365515;32;20141;-95
2023/01/28 05:49:12;;;;;;;38.40;16.33;;;;;;;4.04;59.63;98725.34;4364437;32;20087;-92
2023/01/28 05:51:38;;;;;;;;;;;;;;;4.13;59.45;98725.09;4364601;32;20090;-88
2023/01/28 05:54:05;;;;;;;38.60;15.65;;;;;;;4.06;59.45;98726.16;4364099;32;19992;-86
2023/01/28 05:56:30;;;;;;;46.97;18.75;;;;;;;4.33;58.89;98723.66;4364020;32;20083;-86
2023/01/28 05:58:56;;;;;;;41.72;17.30;;;;;;;3.97;60.01;98730.78;4364024;32;20113;-86
2023/01/28 06:01:21;;;;;;;43.05;16.50;;;;;;;4.28;59.19;98738.56;4363790;32;20075;-86
2023/01/28 06:03:46;;;;;;;41.78;16.73;;;;;;;4.31;59.03;98730.66;4363791;32;20387;-87
2023/01/28 06:06:12;;;;;;;42.30;17.23;;;;;;;3.99;59.95;98731.59;4363955;32;20145;-86
2023/01/28 06:08:37;;;;;;;39.72;17.05;;;;;;;3.85;60.40;98740.66;4363893;32;20095;-86
2023/01/28 06:11:03;;;;;;;40.90;15.52;;;;;;;3.95;60.22;98751.69;4363923;32;20088;-86
2023/01/28 06:13:28;;;;;;;44.25;18.27;;;;;;;4.16;59.61;98749.38;4363673;32;20102;-87
2023/01/28 06:15:53;;;;;;;39.55;16.58;;;;;;;3.97;60.13;98749.88;4363663;32;20096;-86
2023/01/28 06:18:19;;;;;;;41.92;17.73;;;;;;;4.18;59.72;98755.38;4363816;32;20082;-86
2023/01/28 06:20:44;;;;;;;41.30;16.67;;;;;;;3.35;62.25;98754.16;4375054;32;20083;-86
2023/01/28 06:23:09;;;;;;;40.60;16.52;;;;;;;3.88;60.77;98757.94;4363601;32;20114;-86
2023/01/28 06:25:35;;;;;;;39.60;16.45;;;;;;;3.45;62.32;98761.72;4363684;32;20079;-87
2023/01/28 06:28:00;;;;;;;43.20;16.17;;;;;;;3.63;61.77;98761.25;4363706;32;20098;-86
2023/01/28 06:30:26;;;;;;;42.88;16.77;;;;;;;3.29;62.78;98764.72;4363684;32;20067;-86
2023/01/28 06:32:55;;;;;;;40.25;16.50;;;;;;;3.05;63.65;98758.41;4363454;32;20121;-86
2023/01/28 06:35:20;;;;;;;41.67;16.37;;;;;;;3.65;62.07;98762.06;4362436;32;20508;-86
2023/01/28 06:37:46;;;;;;;40.80;16.92;;;;;;;3.52;62.02;98766.75;4363630;32;20083;-87
2023/01/28 06:40:11;;;;;;;43.35;16.87;;;;;;;3.00;64.08;98772.41;4363474;32;20118;-87
2023/01/28 06:42:37;;;;;;;45.33;17.33;;;;;;;3.70;62.15;98777.56;4363479;32;20196;-87
2023/01/28 06:45:03;;;;;;;42.03;17.83;;;;;;;3.99;61.10;98779.38;4363452;32;20099;-86
2023/01/28 06:47:28;;;;;;;43.40;17.17;;;;;;;3.55;62.44;98784.03;4363525;32;20095;-86
2023/01/28 06:49:53;;;;;;;41.88;17.90;;;;;;;3.42;62.95;98786.09;4364989;32;20118;-86
2023/01/28 06:52:19;;;;;;;46.70;17.92;;;;;;;3.62;62.45;98788.19;4365147;32;20402;-87
2023/01/28 06:54:44;;;;;;;46.67;17.77;;;;;;;3.79;61.99;98790.34;4365173;32;20490;-86
2023/01/28 06:57:10;;;;;;;45.65;17.80;;;;;;;3.89;61.58;98794.41;4365373;32;20087;-86
2023/01/28 06:59:35;;;;;;;44.55;16.85;;;;;;;3.77;61.97;98797.34;4376729;32;20439;-86
2023/01/28 07:02:00;;;;;;;45.35;18.08;;;;;;;3.74;62.08;98803.47;4364014;32;20409;-86
2023/01/28 07:04:26;;;;;;;52.62;19.00;;;;;;;3.35;63.37;98798.41;4365206;32;20087;-87
2023/01/28 07:06:51;;;;;;;44.85;19.60;;;;;;;3.61;62.88;98804.72;4365297;32;20091;-86
2023/01/28 07:09:17;;;;;;;48.75;18.12;;;;;;;3.93;61.91;98811.66;4365196;32;20123;-86
2023/01/28 07:11:45;;;;;;;43.65;19.23;;;;;;;3.84;62.00;98814.50;4365086;32;20099;-86
2023/01/28 07:14:10;;;;;;;46.42;17.80;;;;;;;4.00;61.71;98812.37;4365163;32;20451;-87
2023/01/28 07:16:36;;;;;;;48.38;18.83;;;;;;;4.20;60.94;98809.19;4365049;32;20087;-87
2023/01/28 07:19:01;;;;;;;45.00;18.62;;;;;;;3.42;62.85;98812.16;4365050;32;20104;-86
2023/01/28 07:21:27;;;;;;;46.80;18.80;;;;;;;3.17;64.25;98829.25;4365092;32;20113;-87
2023/01/28 07:23:52;;;;;;;44.78;17.62;;;;;;;3.09;64.02;98821.63;4365028;32;20095;-87
2023/01/28 07:26:18;;;;;;;44.05;17.60;;;;;;;3.48;63.45;98819.81;4365120;32;20108;-86
2023/01/28 07:28:44;;;;;;;52.35;19.23;;;;;;;3.92;62.16;98836.03;4365090;32;20079;-87
2023/01/28 07:31:10;;;;;;;42.47;16.00;;;;;;;4.04;61.59;98829.63;4376197;32;20110;-86
2023/01/28 07:33:35;;;;;;;46.85;18.83;;;;;;;3.99;61.80;98826.28;4363922;32;20151;-86
2023/01/28 07:36:01;;;;;;;46.35;17.70;;;;;;;3.99;61.59;98831.50;4364926;32;20095;-86
2023/01/28 07:38:26;;;;;;;44.13;17.50;;;;;;;3.96;61.94;98831.59;4364961;32;20080;-87
2023/01/28 07:40:52;;;;;;;40.83;17.35;;;;;;;4.08;61.35;98833.00;4365052;32;20173;-87
2023/01/28 07:43:17;;;;;;;47.95;18.40;;;;;;;4.12;61.53;98826.81;4364915;32;20083;-87
2023/01/28 07:45:43;;;;;;;41.47;17.83;;;;;;;4.34;61.08;98833.09;4365103;32;20415;-86
2023/01/28 07:48:11;;;;;;;43.90;17.17;;;;;;;4.01;61.52;98828.84;4364983;32;20497;-87
2023/01/28 07:50:36;;;;;;;;;;;;;;;4.43;60.81;98825.94;4365214;32;20510;-87
2023/01/28 07:53:03;;;;;;;40.60;16.70;;;;;;;3.74;61.98;98836.50;4376328;32;20000;-87
2023/01/28 07:55:29;;;;;;;45.03;17.50;;;;;;;4.08;61.61;98833.84;4363897;32;20099;-87
2023/01/28 07:57:56;;;;;;;38.30;16.73;;;;;;;4.55;60.54;98837.78;4365181;32;20215;-87
2023/01/28 08:00:23;;;;;;;42.92;17.37;;;;;;;4.12;61.66;98837.25;4364433;32;20141;-87
2023/01/28 08:02:49;;;;;;;39.43;17.23;;;;;;;4.53;60.77;98830.81;4365153;32;20227;-86
2023/01/28 08:05:19;;;;;;;43.03;17.20;;;;;;;4.67;59.96;98833.03;4351521;32;20092;-88
2023/01/28 08:07:47;;;;;;;37.90;17.12;;;;;;;4.40;60.41;98836.44;4363971;32;20376;-87
2023/01/28 08:10:12;;;;;;;40.83;16.48;;;;;;;4.87;59.41;98840.28;4364981;32;20119;-88
2023/01/28 08:12:38;;;;;;;40.10;17.08;;;;;;;4.93;59.39;98844.44;4363608;32;20135;-87
2023/01/28 08:15:04;;;;;;;39.15;15.85;;;;;;;4.09;61.42;98851.19;4364722;32;20130;-87
2023/01/28 08:17:30;;;;;;;36.25;16.15;;;;;;;4.78;59.73;98847.53;4364831;32;20247;-86
2023/01/28 08:19:55;;;;;;;40.12;15.55;;;;;;;5.05;58.71;98845.81;4364681;32;20091;-86
2023/01/28 08:22:25;;;;;;;34.88;15.60;;;;;;;4.51;60.32;98850.87;4363608;32;20121;-88
2023/01/28 08:24:50;;;;;;;35.38;15.27;;;;;;;4.05;61.42;98854.78;4363540;32;20121;-87
2023/01/28 08:27:16;;;;;;;36.05;15.23;;;;;;;4.64;59.90;98848.78;4376045;32;20083;-87
2023/01/28 08:29:42;;;;;;;40.85;16.00;;;;;;;4.86;59.23;98848.97;4364809;32;20420;-87
2023/01/28 08:32:08;;;;;;;38.38;15.82;;;;;;;4.04;61.36;98857.47;4364674;32;20380;-86
2023/01/28 08:34:34;;;;;;;37.88;14.90;;;;;;;4.59;60.45;98860.25;4363443;32;20427;-87
2023/01/28 08:36:59;;;;;;;38.13;14.65;;;;;;;4.73;59.86;98858.97;4350963;32;20091;-87
2023/01/28 08:39:24;;;;;;;34.28;14.38;;;;;;;4.77;59.39;98862.34;4364628;32;20091;-87
2023/01/28 08:41:52;;;;;;;34.78;14.35;;;;;;;4.96;59.18;98867.00;4364605;32;20087;-87
2023/01/28 08:44:17;;;;;;;32.83;14.30;;;;;;;4.52;60.26;98860.44;4364569;32;20078;-86
2023/01/28 08:46:43;;;;;;;36.28;14.20;;;;;;;4.55;60.44;98861.25;4364593;32;20109;-87
2023/01/28 08:49:08;;;;;;;36.20;15.25;;;;;;;4.29;61.40;98875.91;4363590;32;20144;-87
2023/01/28 08:51:33;;;;;;;31.25;13.30;;;;;;;4.59;60.98;98878.53;4364583;32;20123;-87
2023/01/28 08:53:59;;;;;;;33.75;13.55;;;;;;;4.64;60.31;98868.81;4364528;32;20091;-87
2023/01/28 08:56:25;;;;;;;29.55;13.70;;;;;;;4.58;60.59;98875.06;4363456;32;20083;-87
2023/01/28 08:58:50;;;;;;;30.73;13.35;;;;;;;4.75;60.15;98871.09;4364570;32;20099;-87
2023/01/28 09:01:16;;;;;;;30.42;13.20;;;;;;;4.77;59.96;98872.78;4364554;32;20107;-87
2023/01/28 09:03:41;;;;;;;33.13;13.98;;;;;;;4.64;59.64;98866.22;4375370;32;20149;-87
2023/01/28 09:06:07;;;;;;;34.38;13.77;;;;;;;5.34;58.54;98870.16;4364464;32;20109;-87
2023/01/28 09:08:32;;;;;;;32.72;13.32;;;;;;;5.10;58.64;98876.12;4363341;32;20174;-87
2023/01/28 09:10:59;;;;;;;31.30;13.30;;;;;;;5.36;58.20;98873.59;4364207;32;20391;-87
2023/01/28 09:13:25;;;;;;;36.97;13.82;;;;;;;4.64;59.50;98887.09;4364460;32;20087;-87
2023/01/28 09:15:50;;;;;;;32.67;13.52;;;;;;;4.74;59.52;98880.69;4363199;32;20105;-87
2023/01/28 09:18:16;;;;;;;31.65;13.30;;;;;;;5.40;58.54;98881.25;4364394;32;20411;-87
2023/01/28 09:20:42;;;;;;;34.20;13.98;;;;;;;5.45;58.32;98884.59;4364449;32;20111;-87
2023/01/28 09:23:07;;;;;;;30.12;12.82;;;;;;;5.16;58.58;98882.91;4364328;32;20109;-87
2023/01/28 09:25:35;;;;;;;32.28;12.43;;;;;;;5.40;57.59;98883.03;4364406;32;20364;-88
2023/01/28 09:28:00;;;;;;;29.47;13.20;;;;;;;4.81;59.74;98890.06;4364314;32;20157;-87
2023/01/28 09:30:27;;;;;;;30.50;14.45;;;;;;;5.29;58.99;98892.06;4364326;32;20087;-87
2023/01/28 09:32:53;;;;;;;30.65;13.35;;;;;;;5.63;57.80;98885.75;4363193;32;20118;-87
2023/01/28 09:35:19;;;;;;;30.70;13.05;;;;;;;5.69;57.89;98895.16;4364255;32;20091;-87
2023/01/28 09:37:45;;;;;;;31.37;12.77;;;;;;;6.00;57.18;98889.75;4364263;32;20166;-87
2023/01/28 09:40:19;;;;;;;30.25;12.90;;;;;;;5.54;57.98;98887.81;4363030;32;20090;-87
2023/01/28 09:43:24;;;;;;;28.23;11.68;;;;;;;5.99;57.08;98888.06;4363119;32;20113;-87
2023/01/28 09:45:51;;;;;;;28.40;12.25;;;;;;;5.97;55.81;98886.41;4364473;32;20088;-87
2023/01/28 09:48:20;;;;;;;30.80;13.15;;;;;;;6.12;55.45;98888.47;4364410;32;20133;-86
2023/01/28 09:50:53;;;;;;;30.08;11.98;;;;;;;5.75;56.43;98889.72;4363295;32;20163;-86
2023/01/28 09:53:23;;;;;;;27.15;11.40;;;;;;;5.89;55.41;98886.63;4363009;32;20197;-87
2023/01/28 09:56:00;;;;;;;26.50;11.85;;;;;;;5.97;55.47;98889.88;4364068;32;20091;-87
2023/01/28 09:58:26;;;;;;;26.73;11.45;;;;;;;6.04;55.77;98885.28;4364214;32;20204;-87
2023/01/28 10:01:09;;;;;;;27.65;12.25;;;;;;;5.92;55.56;98883.91;4362867;32;20099;-87
2023/01/28 10:03:52;;;;;;;28.98;12.30;;;;;;;6.25;55.02;98878.44;4362716;32;20086;-86
2023/01/28 10:06:28;;;;;;;26.20;11.32;;;;;;;5.77;56.38;98887.91;4362977;32;20083;-87
2023/01/28 10:09:02;;;;;;;27.98;12.27;;;;;;;6.34;54.74;98875.50;4350706;32;20110;-87
2023/01/28 10:11:59;;;;;;;29.20;11.57;;;;;;;6.05;55.87;98874.78;4364065;32;20091;-87
2023/01/28 10:14:31;;;;;;;29.87;11.85;;;;;;;6.24;54.83;98871.53;4362847;32;20083;-87
2023/01/28 10:17:11;;;;;;;26.65;11.32;;;;;;;6.64;53.85;98873.53;4350356;32;20087;-88
2023/01/28 10:19:41;;;;;;;27.80;12.20;;;;;;;6.41;54.83;98876.12;4362872;32;20168;-87
2023/01/28 10:22:18;;;;;;;27.83;12.18;;;;;;;5.91;54.74;98877.00;4363942;32;20422;-87
2023/01/28 10:25:05;;;;;;;29.15;13.00;;;;;;;5.77;55.40;98873.97;4362009;32;20083;-87
2023/01/28 10:27:36;;;;;;;30.58;12.20;;;;;;;5.41;57.12;98882.09;4362653;32;20506;-87
2023/01/28 10:30:15;;;;;;;28.67;12.98;;;;;;;6.19;56.28;98873.44;4363796;32;20805;-87
2023/01/28 10:32:47;;;;;;;26.40;10.85;;;;;;;6.53;55.22;98874.81;4362449;32;20123;-86
2023/01/28 10:35:13;;;;;;;27.67;11.48;;;;;;;6.14;55.46;98886.66;4362781;32;20082;-88
2023/01/28 10:37:39;;;;;;;25.50;10.60;;;;;;;6.54;54.15;98880.00;4363931;32;20550;-87
2023/01/28 10:40:05;;;;;;;27.15;11.35;;;;;;;6.24;54.15;98876.75;4362648;32;20115;-87
2023/01/28 10:42:35;;;;;;;29.00;11.48;;;;;;;6.61;53.48;98878.03;4362486;32;20173;-86
2023/01/28 10:45:13;;;;;;;26.20;11.38;;;;;;;6.53;53.51;98875.72;4363876;32;20534;-87
2023/01/28 10:47:43;;;;;;;25.88;11.15;;;;;;;6.49;53.87;98874.97;4363717;32;20084;-86
2023/01/28 10:50:23;;;;;;;25.67;11.07;;;;;;;6.17;54.42;98872.66;4362392;32;20115;-87
2023/01/28 10:53:00;;;;;;;26.27;11.90;;;;;;;6.57;52.95;98876.44;4363370;32;20452;-86
2023/01/28 10:55:28;;;;;;;26.75;11.32;;;;;;;6.67;53.20;98872.56;4362108;32;20126;-87
2023/01/28 10:57:54;;;;;;;26.25;11.98;;;;;;;7.01;51.95;98868.66;4363479;32;20215;-87
2023/01/28 11:00:19;;;;;;;27.58;12.23;;;;;;;6.77;52.54;98873.94;4362168;32;20133;-87
2023/01/28 11:02:47;;;;;;;29.45;11.80;;;;;;;6.39;53.33;98878.81;4363214;32;20107;-87
2023/01/28 11:05:27;;;;;;;24.63;10.63;;;;;;;6.21;54.07;98885.56;4362170;32;20091;-87
2023/01/28 11:08:23;;;;;;;28.58;11.60;;;;;;;6.55;52.92;98880.84;4374454;32;20082;-87
2023/01/28 11:10:49;;;;;;;24.70;11.18;;;;;;;7.36;51.28;98877.78;4356026;32;20155;-88
2023/01/28 11:13:27;;;;;;;28.85;12.07;;;;;;;6.95;51.68;98879.38;4363463;32;20474;-87
2023/01/28 11:16:15;;;;;;;24.87;11.68;;;;;;;6.40;53.86;98883.13;4363095;32;20098;-86
2023/01/28 11:18:51;;;;;;;26.83;11.82;;;;;;;6.62;53.25;98877.12;4362192;32;20114;-87
2023/01/28 11:21:19;;;;;;;30.05;12.70;;;;;;;6.80;52.53;98872.94;4362181;32;20548;-86
2023/01/28 11:23:57;;;;;;;31.87;13.50;;;;;;;6.71;52.68;98873.31;4362130;32;20134;-87
2023/01/28 11:26:26;;;;;;;29.00;12.32;;;;;;;6.73;53.29;98863.63;4363275;32;20186;-87
2023/01/28 11:28:52;;;;;;;33.05;12.73;;;;;;;7.30;51.47;98859.66;4361979;32;20448;-87
2023/01/28 11:31:18;;;;;;;29.10;12.27;;;;;;;6.68;52.67;98869.91;4361949;32;20103;-87
2023/01/28 11:33:50;;;;;;;30.15;12.75;;;;;;;7.25;51.75;98857.22;4361932;32;20494;-87
2023/01/28 11:36:22;;;;;;;27.25;12.32;;;;;;;7.27;51.96;98854.53;4363892;32;20443;-88
2023/01/28 11:38:52;;;;;;;27.92;12.73;;;;;;;7.21;52.00;98853.03;4365046;32;20087;-87
2023/01/28 11:41:26;;;;;;;26.98;11.10;;;;;;;6.75;53.56;98862.66;4365076;32;20161;-87
2023/01/28 11:43:52;;;;;;;26.12;11.50;;;;;;;7.20;51.15;98853.06;4376256;32;20513;-87
2023/01/28 11:46:18;;;;;;;29.00;12.23;;;;;;;7.05;50.99;98860.63;4365067;32;20087;-87
2023/01/28 11:48:55;;;;;;;27.58;11.95;;;;;;;6.99;51.94;98863.50;4364893;32;20412;-87
2023/01/28 11:52:00;;;;;;;27.98;12.43;;;;;;;6.57;52.61;98864.22;4365130;32;20099;-87
2023/01/28 11:54:25;;;;;;;27.85;11.65;;;;;;;7.18;51.24;98855.75;4364896;32;20099;-88
2023/01/28 11:57:23;;;;;;;27.98;12.15;;;;;;;6.59;53.24;98869.41;4364929;32;20141;-87
2023/01/28 12:00:10;;;;;;;27.05;11.07;;;;;;;7.07;52.44;98863.22;4364941;32;20105;-87
2023/01/28 12:03:20;;;;;;;27.50;12.07;;;;;;;7.09;51.36;98848.28;4364717;32;20106;-87